createdAt,value
2022-12-28T00:01:28.074Z,0.40
2022-12-28T00:03:55.689Z,1.17
2022-12-28T00:06:24.304Z,1.65
2022-12-28T00:08:55.086Z,1.55
2022-12-28T00:11:26.633Z,1.00
2022-12-28T00:13:58.191Z,0.50
2022-12-28T00:16:31.312Z,3.78
2022-12-28T00:18:59.807Z,1.42
2022-12-28T00:21:27.553Z,0.50
2022-12-28T00:23:57.146Z,0.85
2022-12-28T00:26:26.519Z,2.00
2022-12-28T00:28:56.881Z,2.92
2022-12-28T00:31:26.707Z,1.13
2022-12-28T00:33:53.657Z,2.78
2022-12-28T00:36:20.317Z,2.28
2022-12-28T00:38:46.904Z,0.70
2022-12-28T00:41:13.536Z,0.68
2022-12-28T00:43:40.207Z,1.05
2022-12-28T00:46:06.897Z,0.40
2022-12-28T00:48:33.720Z,1.02
2022-12-28T00:51:09.569Z,1.65
2022-12-28T00:53:36.459Z,0.43
2022-12-28T00:56:21.053Z,1.65
2022-12-28T00:58:47.713Z,3.72
2022-12-28T01:01:17.344Z,0.47
2022-12-28T01:03:44.336Z,3.67
2022-12-28T01:06:13.348Z,1.45
2022-12-28T01:08:40.815Z,1.02
2022-12-28T01:11:18.238Z,2.17
2022-12-28T01:13:45.517Z,0.70
2022-12-28T01:16:14.656Z,0.65
2022-12-28T01:18:42.214Z,0.50
2022-12-28T01:21:14.692Z,0.75
2022-12-28T01:23:41.560Z,1.83
2022-12-28T01:26:08.640Z,0.57
2022-12-28T01:28:35.874Z,0.30
2022-12-28T01:31:07.766Z,0.40
2022-12-28T01:33:34.675Z,0.40
2022-12-28T01:36:08.407Z,0.40
2022-12-28T01:38:35.985Z,0.73
2022-12-28T01:41:06.368Z,0.40
2022-12-28T01:43:54.576Z,1.00
2022-12-28T01:46:38.358Z,0.57
2022-12-28T01:49:17.132Z,0.40
2022-12-28T01:51:58.993Z,2.05
2022-12-28T01:54:29.944Z,1.48
2022-12-28T01:56:57.957Z,1.13
2022-12-28T01:59:29.311Z,1.40
2022-12-28T02:01:56.661Z,2.20
2022-12-28T02:04:26.333Z,0.68
2022-12-28T02:06:54.824Z,1.08
2022-12-28T02:09:26.943Z,2.60
2022-12-28T02:11:54.604Z,3.53
2022-12-28T02:14:22.388Z,2.13
2022-12-28T02:16:49.177Z,0.40
2022-12-28T02:19:21.361Z,2.05
2022-12-28T02:22:22.074Z,6.47
2022-12-28T02:25:12.169Z,0.70
2022-12-28T02:28:08.203Z,0.43
2022-12-28T02:30:44.352Z,1.55
2022-12-28T02:33:23.948Z,2.83
2022-12-28T02:36:11.675Z,4.35
2022-12-28T02:38:47.286Z,1.05
2022-12-28T02:41:21.083Z,1.17
2022-12-28T02:43:48.087Z,2.28
2022-12-28T02:46:48.957Z,3.63
2022-12-28T02:49:44.387Z,0.60
2022-12-28T02:52:40.912Z,3.55
2022-12-28T02:55:50.960Z,1.70
2022-12-28T02:58:42.179Z,0.70
2022-12-28T03:01:30.494Z,0.50
2022-12-28T03:04:18.898Z,1.10
2022-12-28T03:07:30.327Z,0.65
2022-12-28T03:10:21.420Z,0.60
2022-12-28T03:13:30.316Z,0.90
2022-12-28T03:16:03.925Z,2.20
2022-12-28T03:18:50.976Z,1.80
2022-12-28T03:21:36.573Z,1.00
2022-12-28T03:24:23.255Z,2.25
2022-12-28T03:27:10.327Z,3.08
2022-12-28T03:30:02.274Z,0.93
2022-12-28T03:32:29.408Z,1.02
2022-12-28T03:34:56.787Z,2.72
2022-12-28T03:37:36.382Z,0.93
2022-12-28T03:40:12.479Z,0.82
2022-12-28T03:43:03.340Z,4.80
2022-12-28T03:45:45.128Z,1.98
2022-12-28T03:48:15.584Z,2.92
2022-12-28T03:50:45.807Z,5.15
2022-12-28T03:53:13.039Z,1.63
2022-12-28T03:55:40.602Z,1.00
2022-12-28T03:58:07.493Z,0.60
2022-12-28T04:00:34.479Z,2.20
2022-12-28T04:03:01.130Z,4.35
2022-12-28T04:05:27.778Z,2.50
2022-12-28T04:07:54.413Z,0.70
2022-12-28T04:10:21.051Z,0.85
2022-12-28T04:12:47.673Z,0.77
2022-12-28T04:15:14.386Z,1.13
2022-12-28T04:17:40.978Z,0.70
2022-12-28T04:20:08.166Z,4.68
2022-12-28T04:22:34.756Z,3.20
2022-12-28T04:25:01.382Z,0.43
2022-12-28T04:27:28.072Z,0.60
2022-12-28T04:29:54.660Z,0.93
2022-12-28T04:32:21.319Z,2.08
2022-12-28T04:34:48.975Z,2.08
2022-12-28T04:37:15.907Z,6.97
2022-12-28T04:39:55.955Z,3.03
2022-12-28T04:42:25.270Z,3.38
2022-12-28T04:44:51.984Z,1.40
2022-12-28T04:47:18.732Z,1.10
2022-12-28T04:49:45.371Z,1.50
2022-12-28T04:52:12.175Z,5.20
2022-12-28T04:54:38.803Z,0.95
2022-12-28T04:57:05.461Z,5.57
2022-12-28T04:59:32.060Z,3.13
2022-12-28T05:01:58.763Z,2.75
2022-12-28T05:04:25.897Z,3.90
2022-12-28T05:06:52.536Z,5.05
2022-12-28T05:09:19.544Z,4.78
2022-12-28T05:11:46.314Z,5.88
2022-12-28T05:14:12.988Z,3.92
2022-12-28T05:16:39.726Z,5.47
2022-12-28T05:19:06.440Z,2.08
2022-12-28T05:21:33.136Z,7.72
2022-12-28T05:23:59.987Z,4.82
2022-12-28T05:26:29.123Z,4.53
2022-12-28T05:28:57.006Z,9.93
2022-12-28T05:31:24.566Z,3.47
2022-12-28T05:33:51.906Z,3.78
2022-12-28T05:36:21.318Z,8.73
2022-12-28T05:38:48.341Z,3.10
2022-12-28T05:41:22.265Z,6.55
2022-12-28T05:43:49.101Z,5.53
2022-12-28T05:46:19.827Z,7.75
2022-12-28T05:48:47.461Z,6.05
2022-12-28T05:51:17.547Z,5.75
2022-12-28T05:53:45.300Z,3.42
2022-12-28T05:56:14.937Z,4.13
2022-12-28T05:58:46.237Z,3.08
2022-12-28T06:01:19.568Z,2.88
2022-12-28T06:03:47.456Z,2.78
2022-12-28T06:06:16.738Z,6.68
2022-12-28T06:08:44.928Z,4.75
2022-12-28T06:11:14.787Z,3.55
2022-12-28T06:13:41.954Z,3.20
2022-12-28T06:16:15.151Z,5.03
2022-12-28T06:18:42.622Z,4.57
2022-12-28T06:21:24.010Z,5.68
2022-12-28T06:23:51.021Z,2.05
2022-12-28T06:26:20.628Z,4.20
2022-12-28T06:28:48.292Z,3.58
2022-12-28T06:31:25.752Z,1.55
2022-12-28T06:33:57.104Z,2.53
2022-12-28T06:36:29.634Z,4.88
2022-12-28T06:38:57.708Z,3.58
2022-12-28T06:41:25.848Z,3.03
2022-12-28T06:43:54.188Z,5.30
2022-12-28T06:46:22.268Z,1.65
2022-12-28T06:48:50.531Z,2.40
2022-12-28T06:51:24.187Z,1.05
2022-12-28T06:53:52.395Z,5.88
2022-12-28T06:56:22.212Z,2.75
2022-12-28T06:58:50.297Z,1.10
2022-12-28T07:01:18.605Z,9.05
2022-12-28T07:03:46.447Z,1.55
2022-12-28T07:06:14.400Z,2.15
2022-12-28T07:08:41.911Z,3.13
2022-12-28T07:11:16.750Z,3.42
2022-12-28T07:13:43.473Z,6.63
2022-12-28T07:16:13.229Z,4.68
2022-12-28T07:18:40.181Z,3.97
2022-12-28T07:21:10.645Z,2.85
2022-12-28T07:23:37.547Z,2.40
2022-12-28T07:26:12.895Z,2.63
2022-12-28T07:28:45.570Z,3.28
2022-12-28T07:31:14.992Z,4.72
2022-12-28T07:33:41.804Z,4.70
2022-12-28T07:36:10.218Z,1.90
2022-12-28T07:38:37.288Z,2.95
2022-12-28T07:41:07.187Z,2.03
2022-12-28T07:43:34.483Z,2.95
2022-12-28T07:46:09.301Z,1.60
2022-12-28T07:48:37.199Z,2.05
2022-12-28T07:51:10.915Z,3.47
2022-12-28T07:53:38.459Z,2.95
2022-12-28T07:56:06.508Z,2.67
2022-12-28T07:58:33.461Z,2.65
2022-12-28T08:01:20.631Z,2.50
2022-12-28T08:03:48.136Z,2.30
2022-12-28T08:06:20.848Z,4.97
2022-12-28T08:08:49.559Z,2.80
2022-12-28T08:11:22.668Z,1.73
2022-12-28T08:13:51.902Z,1.92
2022-12-28T08:16:20.222Z,2.42
2022-12-28T08:18:48.426Z,3.80
2022-12-28T08:21:18.094Z,2.65
2022-12-28T08:23:45.262Z,2.70
2022-12-28T08:26:18.739Z,2.50
2022-12-28T08:28:47.508Z,1.80
2022-12-28T08:31:20.091Z,1.42
2022-12-28T08:33:47.391Z,1.77
2022-12-28T08:36:14.725Z,2.65
2022-12-28T08:38:43.340Z,2.45
2022-12-28T08:41:17.064Z,2.55
2022-12-28T08:43:46.628Z,1.80
2022-12-28T08:46:19.385Z,1.23
2022-12-28T08:48:47.936Z,0.95
2022-12-28T08:51:17.614Z,2.13
2022-12-28T08:53:44.813Z,1.10
2022-12-28T08:56:17.776Z,1.35
2022-12-28T08:58:45.827Z,1.10
2022-12-28T09:01:14.805Z,0.90
2022-12-28T09:03:43.783Z,2.50
2022-12-28T09:06:13.646Z,1.02
2022-12-28T09:08:42.569Z,0.60
2022-12-28T09:11:14.711Z,0.70
2022-12-28T09:13:41.557Z,1.35
2022-12-28T09:16:11.248Z,1.58
2022-12-28T09:18:39.467Z,0.57
2022-12-28T09:21:17.159Z,0.32
2022-12-28T09:23:45.717Z,0.90
2022-12-28T09:26:23.967Z,0.50
2022-12-28T09:28:55.545Z,0.40
2022-12-28T09:31:24.474Z,0.77
2022-12-28T09:36:47.615Z,0.55
2022-12-28T09:39:20.498Z,0.98
2022-12-28T09:42:02.096Z,1.85
2022-12-28T09:44:39.134Z,0.93
2022-12-28T09:47:17.291Z,2.72
2022-12-28T09:50:00.751Z,1.00
2022-12-28T09:52:35.206Z,2.72
2022-12-28T09:55:14.017Z,2.42
2022-12-28T09:57:45.560Z,3.20
2022-12-28T10:00:21.731Z,3.55
2022-12-28T10:02:54.367Z,1.02
2022-12-28T10:05:22.146Z,3.15
2022-12-28T10:07:49.026Z,2.15
2022-12-28T10:10:22.254Z,1.83
2022-12-28T10:12:51.015Z,2.35
2022-12-28T10:15:18.716Z,3.13
2022-12-28T10:17:45.917Z,2.15
2022-12-28T10:20:18.184Z,3.83
2022-12-28T10:22:50.330Z,1.98
2022-12-28T10:25:23.611Z,1.10
2022-12-28T10:27:50.907Z,1.65
2022-12-28T10:30:21.183Z,1.10
2022-12-28T10:33:03.068Z,3.28
2022-12-28T10:35:41.060Z,2.05
2022-12-28T10:38:29.561Z,2.45
2022-12-28T10:41:09.666Z,3.92
2022-12-28T10:43:39.867Z,6.53
2022-12-28T10:46:15.093Z,2.33
2022-12-28T10:48:47.457Z,3.05
2022-12-28T10:51:17.791Z,2.47
2022-12-28T10:53:48.781Z,1.10
2022-12-28T10:56:17.581Z,0.88
2022-12-28T10:58:46.814Z,4.85
2022-12-28T11:01:13.598Z,1.05
2022-12-28T11:03:58.042Z,2.90
2022-12-28T11:06:29.871Z,2.72
2022-12-28T11:09:13.460Z,3.22
2022-12-28T11:11:41.191Z,5.07
2022-12-28T11:14:35.009Z,2.25
2022-12-28T11:17:18.084Z,1.38
2022-12-28T11:19:45.679Z,1.25
2022-12-28T11:22:15.392Z,1.48
2022-12-28T11:24:42.214Z,2.58
2022-12-28T11:27:18.620Z,0.95
2022-12-28T11:29:52.233Z,1.20
2022-12-28T11:32:25.347Z,2.90
2022-12-28T11:34:54.387Z,2.22
2022-12-28T11:37:21.487Z,3.15
2022-12-28T11:39:49.627Z,1.85
2022-12-28T11:42:41.943Z,4.07
2022-12-28T11:51:34.034Z,0.95
2022-12-28T11:57:18.615Z,4.80
2022-12-28T11:59:45.271Z,0.85
2022-12-28T12:02:24.031Z,2.05
2022-12-28T12:04:50.728Z,1.73
2022-12-28T12:07:23.768Z,4.75
2022-12-28T12:12:48.630Z,0.75
2022-12-28T12:18:04.302Z,0.80
2022-12-28T12:20:45.879Z,3.30
2022-12-28T12:23:24.762Z,4.05
2022-12-28T12:25:56.447Z,5.38
2022-12-28T12:28:47.793Z,1.98
2022-12-28T12:31:39.798Z,0.57
2022-12-28T12:34:19.511Z,0.50
2022-12-28T12:37:11.093Z,1.52
2022-12-28T12:39:52.863Z,0.63
2022-12-28T12:42:25.564Z,1.70
2022-12-28T12:45:16.524Z,1.02
2022-12-28T12:48:08.090Z,0.73
2022-12-28T12:50:57.729Z,1.30
2022-12-28T12:53:30.101Z,1.00
2022-12-28T12:56:13.879Z,0.55
2022-12-28T12:58:52.724Z,0.43
2022-12-28T13:01:44.269Z,0.40
2022-12-28T13:04:27.607Z,0.43
2022-12-28T13:06:59.369Z,0.40
2022-12-28T13:09:34.405Z,0.63
2022-12-28T13:12:02.711Z,0.60
2022-12-28T13:14:29.902Z,0.32
2022-12-28T13:16:59.074Z,0.45
2022-12-28T13:19:28.043Z,0.30
2022-12-28T13:21:55.652Z,0.40
2022-12-28T13:24:26.818Z,1.65
2022-12-28T13:26:55.439Z,1.70
2022-12-28T13:29:25.716Z,0.50
2022-12-28T13:31:52.886Z,0.57
2022-12-28T13:34:29.517Z,0.40
2022-12-28T13:36:58.570Z,0.75
2022-12-28T13:39:41.619Z,0.40
2022-12-28T13:42:34.077Z,0.50
2022-12-28T13:45:08.129Z,1.20
2022-12-28T13:47:47.968Z,2.33
2022-12-28T13:50:27.902Z,0.40
2022-12-28T13:53:18.654Z,0.50
2022-12-28T13:56:00.687Z,0.50
2022-12-28T13:58:32.575Z,1.65
2022-12-28T14:01:02.521Z,0.65
2022-12-28T14:03:35.895Z,1.13
2022-12-28T14:06:06.944Z,0.85
2022-12-28T14:08:36.712Z,1.48
2022-12-28T14:11:11.241Z,1.15
2022-12-28T14:13:39.522Z,1.33
2022-12-28T14:16:15.974Z,0.80
2022-12-28T14:18:47.768Z,0.60
2022-12-28T14:21:14.506Z,0.70
2022-12-28T14:23:41.195Z,0.77
2022-12-28T14:26:22.652Z,1.80
2022-12-28T14:28:53.023Z,0.57
2022-12-28T14:31:22.410Z,1.40
2022-12-28T14:33:56.154Z,0.50
2022-12-28T14:36:27.281Z,0.73
2022-12-28T14:39:01.083Z,0.80
2022-12-28T14:42:03.857Z,3.28
2022-12-28T14:44:36.671Z,0.77
2022-12-28T14:47:42.720Z,0.47
2022-12-28T14:50:18.646Z,2.10
2022-12-28T14:52:48.650Z,0.70
2022-12-28T14:55:31.194Z,2.25
2022-12-28T14:58:07.017Z,2.33
2022-12-28T15:00:36.721Z,2.50
2022-12-28T15:03:21.606Z,3.70
2022-12-28T15:05:52.564Z,0.85
2022-12-28T15:08:19.391Z,1.55
2022-12-28T15:10:58.125Z,1.98
2022-12-28T15:13:26.450Z,0.60
2022-12-28T15:15:55.162Z,6.07
2022-12-28T15:18:23.182Z,5.88
2022-12-28T15:20:50.217Z,3.45
2022-12-28T15:23:17.010Z,2.05
2022-12-28T15:25:46.483Z,4.68
2022-12-28T15:28:13.265Z,1.75
2022-12-28T15:30:41.768Z,3.28
2022-12-28T15:33:09.109Z,3.33
2022-12-28T15:35:36.068Z,1.75
2022-12-28T15:38:03.826Z,4.72
2022-12-28T15:40:31.205Z,3.10
2022-12-28T15:42:57.914Z,6.47
2022-12-28T15:45:24.587Z,7.43
2022-12-28T15:47:54.641Z,4.20
2022-12-28T15:50:21.676Z,3.95
2022-12-28T15:52:48.317Z,6.78
2022-12-28T15:55:15.757Z,7.47
2022-12-28T15:57:44.483Z,3.70
2022-12-28T16:00:18.977Z,4.95
2022-12-28T16:02:46.848Z,6.07
2022-12-28T16:05:14.298Z,6.45
2022-12-28T16:07:40.937Z,6.43
2022-12-28T16:10:08.730Z,2.65
2022-12-28T16:12:36.004Z,10.75
2022-12-28T16:15:02.688Z,10.93
2022-12-28T16:17:29.366Z,5.30
2022-12-28T16:19:56.223Z,6.63
2022-12-28T16:22:23.111Z,5.65
2022-12-28T16:24:49.916Z,7.65
2022-12-28T16:27:16.595Z,7.93
2022-12-28T16:29:45.882Z,11.85
2022-12-28T16:32:12.925Z,7.00
2022-12-28T16:34:39.602Z,6.70
2022-12-28T16:37:06.285Z,6.72
2022-12-28T16:39:33.085Z,11.55
2022-12-28T16:42:01.095Z,13.75
2022-12-28T16:44:29.406Z,6.40
2022-12-28T16:46:58.470Z,20.48
2022-12-28T16:49:26.657Z,9.55
2022-12-28T16:51:53.571Z,5.63
2022-12-28T16:54:23.323Z,7.63
2022-12-28T16:56:51.388Z,6.55
2022-12-28T16:59:24.742Z,7.05
2022-12-28T17:01:53.014Z,15.40
2022-12-28T17:04:19.970Z,10.20
2022-12-28T17:06:50.886Z,9.05
2022-12-28T17:09:18.640Z,13.45
2022-12-28T17:11:51.388Z,13.68
2022-12-28T17:14:35.603Z,13.65
2022-12-28T17:17:04.173Z,13.95
2022-12-28T17:19:30.904Z,9.48
2022-12-28T17:21:57.538Z,15.90
2022-12-28T17:24:25.400Z,6.00
2022-12-28T17:26:52.810Z,14.68
2022-12-28T17:29:19.496Z,11.18
2022-12-28T17:31:46.360Z,11.23
2022-12-28T17:34:13.073Z,17.73
2022-12-28T17:36:39.700Z,17.73
2022-12-28T17:39:06.347Z,18.95
2022-12-28T17:41:33.192Z,10.30
2022-12-28T17:44:01.291Z,20.20
2022-12-28T17:46:44.859Z,10.57
2022-12-28T17:49:13.769Z,13.00
2022-12-28T17:51:43.613Z,9.95
2022-12-28T17:54:11.884Z,21.30
2022-12-28T17:56:39.166Z,12.57
2022-12-28T17:59:06.075Z,15.25
2022-12-28T18:01:32.888Z,20.90
2022-12-28T18:03:59.733Z,13.23
2022-12-28T18:06:26.477Z,19.98
2022-12-28T18:08:53.238Z,13.50
2022-12-28T18:11:19.890Z,22.15
2022-12-28T18:13:48.286Z,11.18
2022-12-28T18:16:17.613Z,20.50
2022-12-28T18:18:45.212Z,15.30
2022-12-28T18:21:21.632Z,10.88
2022-12-28T18:23:51.921Z,15.07
2022-12-28T18:26:26.534Z,19.15
2022-12-28T18:28:54.543Z,22.20
2022-12-28T18:31:21.810Z,14.48
2022-12-28T18:33:49.152Z,20.23
2022-12-28T18:36:18.030Z,15.93
2022-12-28T18:38:46.347Z,8.70
2022-12-28T18:41:15.539Z,14.68
2022-12-28T18:43:43.190Z,14.25
2022-12-28T18:46:11.020Z,19.05
2022-12-28T18:48:40.361Z,16.45
2022-12-28T18:51:12.609Z,10.27
2022-12-28T18:53:40.331Z,19.23
2022-12-28T18:56:10.786Z,27.23
2022-12-28T18:58:38.722Z,21.00
2022-12-28T19:01:55.428Z,16.55
2022-12-28T19:04:07.480Z,11.32
2022-12-28T19:06:34.444Z,11.18
2022-12-28T19:09:02.015Z,14.52
2022-12-28T19:11:32.436Z,15.13
2022-12-28T19:13:59.461Z,10.15
2022-12-28T19:16:31.145Z,14.23
2022-12-28T19:19:01.847Z,7.72
2022-12-28T19:21:33.886Z,15.05
2022-12-28T19:24:05.102Z,11.25
2022-12-28T19:26:33.584Z,11.50
2022-12-28T19:29:00.319Z,12.88
2022-12-28T19:31:28.068Z,15.35
2022-12-28T19:33:54.952Z,8.00
2022-12-28T19:36:21.901Z,18.98
2022-12-28T19:38:48.540Z,8.32
2022-12-28T19:41:16.406Z,13.10
2022-12-28T19:43:44.057Z,12.40
2022-12-28T19:46:16.027Z,12.38
2022-12-28T19:48:43.224Z,14.57
2022-12-28T19:51:10.223Z,12.48
2022-12-28T19:53:37.499Z,14.05
2022-12-28T19:56:07.240Z,13.68
2022-12-28T19:58:35.824Z,15.38
2022-12-28T20:01:13.168Z,15.10
2022-12-28T20:03:40.097Z,13.25
2022-12-28T20:06:08.051Z,12.27
2022-12-28T20:08:35.300Z,13.38
2022-12-28T20:11:04.196Z,21.17
2022-12-28T20:13:32.236Z,9.82
2022-12-28T20:15:59.357Z,12.63
2022-12-28T20:18:26.184Z,12.23
2022-12-28T20:21:18.684Z,9.65
2022-12-28T20:23:39.534Z,8.23
2022-12-28T20:26:06.160Z,20.48
2022-12-28T20:28:34.533Z,12.95
2022-12-28T20:31:03.510Z,11.65
2022-12-28T20:33:32.231Z,9.25
2022-12-28T20:36:04.989Z,16.83
2022-12-28T20:38:32.750Z,13.52
2022-12-28T20:41:39.533Z,11.75
2022-12-28T20:44:08.790Z,8.70
2022-12-28T20:46:36.050Z,14.27
2022-12-28T20:49:03.689Z,18.25
2022-12-28T20:51:30.414Z,12.77
2022-12-28T20:53:57.221Z,14.40
2022-12-28T20:56:23.901Z,13.73
2022-12-28T20:58:50.789Z,10.20
2022-12-28T21:01:17.954Z,21.63
2022-12-28T21:03:45.854Z,17.67
2022-12-28T21:06:12.792Z,8.18
2022-12-28T21:08:39.467Z,23.85
2022-12-28T21:11:06.259Z,14.23
2022-12-28T21:13:33.356Z,17.38
2022-12-28T21:16:04.798Z,8.73
2022-12-28T21:18:32.596Z,18.00
2022-12-28T21:21:00.260Z,19.95
2022-12-28T21:23:28.462Z,7.97
2022-12-28T21:26:03.133Z,8.68
2022-12-28T21:28:30.985Z,13.57
2022-12-28T21:30:58.337Z,11.05
2022-12-28T21:33:25.001Z,12.00
2022-12-28T21:36:08.110Z,12.48
2022-12-28T21:38:37.884Z,10.20
2022-12-28T21:41:08.151Z,9.05
2022-12-28T21:43:35.458Z,8.38
2022-12-28T21:46:06.052Z,8.98
2022-12-28T21:48:34.912Z,6.97
2022-12-28T21:51:30.287Z,10.13
2022-12-28T21:54:01.668Z,11.27
2022-12-28T21:56:29.501Z,5.88
2022-12-28T21:58:57.574Z,14.73
2022-12-28T22:01:43.842Z,8.25
2022-12-28T22:04:34.537Z,10.27
2022-12-28T22:07:01.751Z,10.20
2022-12-28T22:09:47.123Z,9.25
2022-12-28T22:12:33.768Z,6.85
2022-12-28T22:15:28.151Z,5.60
2022-12-28T22:17:57.296Z,9.40
2022-12-28T22:20:24.913Z,8.82
2022-12-28T22:22:54.621Z,13.27
2022-12-28T22:25:21.218Z,10.18
2022-12-28T22:27:47.851Z,9.77
2022-12-28T22:30:14.901Z,11.70
2022-12-28T22:32:41.753Z,9.82
2022-12-28T22:35:36.675Z,10.55
2022-12-28T22:38:04.026Z,13.80
2022-12-28T22:40:30.815Z,9.27
2022-12-28T22:43:10.485Z,4.93
2022-12-28T22:45:37.178Z,11.23
2022-12-28T22:48:04.316Z,9.93
2022-12-28T22:50:30.920Z,9.70
2022-12-28T22:52:58.403Z,8.40
2022-12-28T22:55:25.240Z,10.65
2022-12-28T22:57:51.832Z,5.57
2022-12-28T23:00:18.508Z,6.97
2022-12-28T23:02:45.391Z,12.85
2022-12-28T23:05:12.360Z,7.18
2022-12-28T23:07:39.605Z,8.02
2022-12-28T23:10:07.801Z,5.18
2022-12-28T23:12:34.579Z,11.60
2022-12-28T23:15:16.426Z,11.55
2022-12-28T23:17:43.204Z,7.60
2022-12-28T23:20:29.536Z,6.25
2022-12-28T23:23:15.005Z,11.07
2022-12-28T23:26:00.437Z,13.32
2022-12-28T23:28:35.389Z,5.80
2022-12-28T23:31:02.475Z,15.27
2022-12-28T23:33:29.253Z,6.35
2022-12-28T23:35:55.902Z,10.32
2022-12-28T23:38:22.525Z,5.22
2022-12-28T23:41:09.173Z,10.77
2022-12-28T23:43:35.879Z,12.07
2022-12-28T23:46:04.906Z,7.63
2022-12-28T23:48:31.615Z,15.18
2022-12-28T23:51:08.255Z,8.18
2022-12-28T23:53:35.329Z,11.18
2022-12-28T23:56:02.068Z,5.05
2022-12-28T23:58:28.738Z,6.40
